Detall de PIREP

Printer-friendly versionPDF version

[2011/12/09 21:06:00]
Flight IATA:CT2215
Pilot Number:026
Company ICAO:CAT
Aircraft Type:DC85/A
PAX:132
Departing Airport: LFRS
Destination Airport: LFMP
Alternate Airport:LFBO
Online: VATSIM
Route:LUGEN UM616 TUPAR UM184 CNA UN863 SECHE UT24 GAI/N0290F170 G36 ORBIL
Flight Level:F290
No Slew and time accel
No pause
Crash detect
Detect pilot in Cockpit between each 30 and 45 minutes
21:06 Zero fuel Weight: 185719 Lbs, Fuel Weight: 21990 Lbs
21:06 VATSIM:LFRS 092030Z 05004KT 3000 -DZRA FEW003 BKN006 BKN023 08/08 Q1016 NOSIG
21:06 VATSIM:LFMP 092030Z AUTO 25005KT 9999 NSC 09/07 Q1020
21:06 VOICE CATALONIAN / 5 ANYS VATFRANCE
21:10 Parking Brakes off
21:19 Take-off
21:19 Take off Weight: 206680 Lbs
21:19 Wind: 066º @ 005 Knots Heading: 028º
21:19 POS N47º 09´ 21´´ W001º 36´ 29´´
21:20 Flaps:3 at 156 Knots
21:20 Gear Up: 157 Knots
21:20 Flaps:2 at 156 Knots
21:21 Flaps:1 at 171 Knots
21:22 Flaps:0 at 192 Knots
21:35 Wind:218º@027 Knots Heading: 164º Ground Speed: 413 Knots Altitude 28625 ft
21:35 TOC
21:35 Fuel Weight: 15941 Lb
21:50 Wind:098º@008 Knots Heading: 153º Ground Speed: 471 Knots Altitude 29160 ft
21:52 TOD
21:52 Fuel Weight: 11954 Lb
22:05 Wind:207º@001 Knots Heading: 148º Ground Speed: 392 Knots Altitude 15183 ft
22:20 Wind:286º@004 Knots Heading: 175º Ground Speed: 264 Knots Altitude 4612 ft
22:30 Gear Down: 153 Knots
22:30 Flaps:1 at 143 Knots
22:30 Flaps:2 at 160 Knots
22:31 Flaps:3 at 139 Knots
22:32 Flaps:4 at 142 Knots
22:32 Flaps:5 at 138 Knots
22:33 TouchDown:Rate -176 ft/min Speed: 108 Knots
22:33 VATSIM:LFMP 092200Z AUTO 29003KT 9999 NSC 08/07 Q1020
22:33 Land
22:33 Wind:292º@003 Knots
22:33 Heading: 327º
22:33 Flight Duration: 01:14
22:33 Landing Weight: 192638 Lbs
22:33 POS N42º 44´ 41´´ E002º 52´ 09´´
22:38 Parking brakes on
22:38 Block to Block Duration: 01:28
22:38 Final Fuel: 6492 Lbls
22:38 Spent Fuel: 15498 Lbls
22:38 Flight Length: 358 NM
22:38 TOD Land Length: 148 NM

Exportar CSV

Powered by Drupal - Modified by Danger4k